createdAt,value
2019-03-09T00:01:59.684Z,49.60
2019-03-09T00:04:27.350Z,49.20
2019-03-09T00:06:55.138Z,49.10
2019-03-09T00:09:22.806Z,49.70
2019-03-09T00:11:50.593Z,49.80
2019-03-09T00:14:18.959Z,49.10
2019-03-09T00:16:46.677Z,49.60
2019-03-09T00:19:14.337Z,49.70
2019-03-09T00:21:42.065Z,49.50
2019-03-09T00:24:31.250Z,49.90
2019-03-09T00:27:03.061Z,50.00
2019-03-09T00:29:51.789Z,48.20
2019-03-09T00:32:22.927Z,49.60
2019-03-09T00:34:50.656Z,48.60
2019-03-09T00:37:18.421Z,48.40
2019-03-09T00:39:46.177Z,48.40
2019-03-09T00:42:13.874Z,48.60
2019-03-09T00:44:41.536Z,49.80
2019-03-09T00:47:09.398Z,50.50
2019-03-09T00:49:37.249Z,51.00
2019-03-09T00:52:05.016Z,50.20
2019-03-09T00:54:32.753Z,50.80
2019-03-09T00:57:00.707Z,51.70
2019-03-09T00:59:28.516Z,51.70
2019-03-09T01:01:56.217Z,51.30
2019-03-09T01:04:24.253Z,51.40
2019-03-09T01:06:51.913Z,50.90
2019-03-09T01:09:19.631Z,50.20
2019-03-09T01:11:47.419Z,49.50
2019-03-09T01:14:15.078Z,49.60
2019-03-09T01:16:42.759Z,49.60
2019-03-09T01:19:10.713Z,49.20
2019-03-09T01:21:38.411Z,49.90
2019-03-09T01:24:06.179Z,50.30
2019-03-09T01:26:33.851Z,50.20
2019-03-09T01:29:01.499Z,50.20
2019-03-09T01:31:30.126Z,50.10
2019-03-09T01:33:57.941Z,50.70
2019-03-09T01:36:25.659Z,50.20
2019-03-09T01:38:53.416Z,50.30
2019-03-09T01:41:21.089Z,50.50
2019-03-09T01:43:48.800Z,50.40
2019-03-09T01:46:18.541Z,51.00
2019-03-09T01:48:46.243Z,50.70
2019-03-09T01:51:14.610Z,51.00
2019-03-09T01:53:42.346Z,50.90
2019-03-09T01:56:10.054Z,51.30
2019-03-09T01:58:37.728Z,50.80
2019-03-09T02:01:05.415Z,51.00
2019-03-09T02:03:33.188Z,51.10
2019-03-09T02:06:01.164Z,51.40
2019-03-09T02:08:28.836Z,51.80
2019-03-09T02:10:56.541Z,52.10
2019-03-09T02:13:24.462Z,51.30
2019-03-09T02:15:52.105Z,52.20
2019-03-09T02:18:20.805Z,52.00
2019-03-09T02:20:48.595Z,52.90
2019-03-09T02:23:16.340Z,52.50
2019-03-09T02:25:43.962Z,53.10
2019-03-09T02:28:11.644Z,53.20
2019-03-09T02:30:40.150Z,53.50
2019-03-09T02:33:08.233Z,53.10
2019-03-09T02:35:35.883Z,53.00
2019-03-09T02:38:11.634Z,53.00
2019-03-09T02:40:39.361Z,54.00
2019-03-09T02:43:07.107Z,53.90
2019-03-09T02:45:35.759Z,54.30
2019-03-09T02:48:03.436Z,54.60
2019-03-09T02:50:31.227Z,54.90
2019-03-09T02:52:58.930Z,55.00
2019-03-09T02:55:29.026Z,55.00
2019-03-09T02:57:56.700Z,54.80
2019-03-09T03:00:26.100Z,54.90
2019-03-09T03:02:56.880Z,55.30
2019-03-09T03:05:24.605Z,54.80
2019-03-09T03:07:52.406Z,55.30
2019-03-09T03:10:20.120Z,55.30
2019-03-09T03:12:47.740Z,54.90
2019-03-09T03:15:30.028Z,54.90
2019-03-09T03:17:57.865Z,55.40
2019-03-09T03:20:25.549Z,55.10
2019-03-09T03:22:53.271Z,55.70
2019-03-09T03:25:22.922Z,55.70
2019-03-09T03:27:50.688Z,55.80
2019-03-09T03:30:20.218Z,55.70
2019-03-09T03:32:48.152Z,55.90
2019-03-09T03:35:17.620Z,54.70
2019-03-09T03:37:45.341Z,55.30
2019-03-09T03:40:13.116Z,55.00
2019-03-09T03:42:40.770Z,54.20
2019-03-09T03:45:08.544Z,54.50
2019-03-09T03:47:36.370Z,55.60
2019-03-09T03:50:04.162Z,55.70
2019-03-09T03:52:31.814Z,55.80
2019-03-09T03:54:59.483Z,56.60
2019-03-09T03:57:27.153Z,56.20
2019-03-09T03:59:54.847Z,57.70
2019-03-09T04:02:22.492Z,57.70
2019-03-09T04:04:50.130Z,57.60
2019-03-09T04:07:17.806Z,58.80
2019-03-09T04:09:45.620Z,58.80
2019-03-09T04:12:13.290Z,58.40
2019-03-09T04:14:40.983Z,58.80
2019-03-09T04:17:08.621Z,59.60
2019-03-09T04:19:36.485Z,59.90
2019-03-09T04:22:05.347Z,61.00
2019-03-09T04:24:33.030Z,61.70
2019-03-09T04:27:00.741Z,61.40
2019-03-09T04:29:28.443Z,61.40
2019-03-09T04:31:56.094Z,62.50
2019-03-09T04:34:23.860Z,62.00
2019-03-09T04:36:58.381Z,62.60
2019-03-09T04:39:26.062Z,63.40
2019-03-09T04:41:53.856Z,63.70
2019-03-09T04:44:21.508Z,64.40
2019-03-09T04:46:49.156Z,64.60
2019-03-09T04:49:16.817Z,65.30
2019-03-09T04:51:44.528Z,65.60
2019-03-09T04:54:12.162Z,65.80
2019-03-09T04:56:39.830Z,65.70
2019-03-09T04:59:07.502Z,65.30
2019-03-09T05:01:35.189Z,65.30
2019-03-09T05:04:51.349Z,65.60
2019-03-09T05:08:07.730Z,66.60
2019-03-09T05:11:05.437Z,66.90
2019-03-09T05:14:03.785Z,67.00
2019-03-09T05:16:31.427Z,67.00
2019-03-09T05:18:59.125Z,67.20
2019-03-09T05:21:26.828Z,67.10
2019-03-09T05:23:54.552Z,67.20
2019-03-09T05:26:22.269Z,67.20
2019-03-09T05:28:49.918Z,67.20
2019-03-09T05:31:17.562Z,67.20
2019-03-09T05:33:46.418Z,67.20
2019-03-09T05:36:14.069Z,67.30
2019-03-09T05:38:42.748Z,68.00
2019-03-09T05:41:10.437Z,68.30
2019-03-09T05:43:38.150Z,68.20
2019-03-09T05:46:05.837Z,68.50
2019-03-09T05:48:33.510Z,68.10
2019-03-09T05:51:03.019Z,68.80
2019-03-09T05:53:30.705Z,68.70
2019-03-09T05:55:58.370Z,68.70
2019-03-09T05:58:26.186Z,69.20
2019-03-09T06:00:54.014Z,69.50
2019-03-09T06:03:21.655Z,69.50
2019-03-09T06:05:52.303Z,70.00
2019-03-09T06:08:21.745Z,70.00
2019-03-09T06:10:49.498Z,70.20
2019-03-09T06:13:18.385Z,70.70
2019-03-09T06:15:45.920Z,71.10
2019-03-09T06:18:13.604Z,70.90
2019-03-09T06:20:41.297Z,70.40
2019-03-09T06:23:09.024Z,70.50
2019-03-09T06:25:38.564Z,71.00
2019-03-09T06:28:06.265Z,71.80
2019-03-09T06:30:35.144Z,71.80
2019-03-09T06:33:19.182Z,72.00
2019-03-09T06:35:49.498Z,72.10
2019-03-09T06:39:05.066Z,72.30
2019-03-09T06:41:37.369Z,72.70
2019-03-09T06:44:05.121Z,73.10
2019-03-09T06:46:32.901Z,72.90
2019-03-09T06:49:01.508Z,73.20
2019-03-09T06:51:29.164Z,73.20
2019-03-09T06:53:56.841Z,73.80
2019-03-09T06:56:24.576Z,74.00
2019-03-09T06:58:52.240Z,73.50
2019-03-09T07:01:21.109Z,73.80
2019-03-09T07:03:48.892Z,73.40
2019-03-09T07:06:16.758Z,73.60
2019-03-09T07:08:44.538Z,73.60
2019-03-09T07:11:12.352Z,73.80
2019-03-09T07:13:40.461Z,73.80
2019-03-09T07:16:08.169Z,73.60
2019-03-09T07:18:38.624Z,73.20
2019-03-09T07:21:06.314Z,73.20
2019-03-09T07:23:35.157Z,73.20
2019-03-09T07:26:02.821Z,73.10
2019-03-09T07:28:30.629Z,73.40
2019-03-09T07:30:58.297Z,72.70
2019-03-09T07:33:25.974Z,72.00
2019-03-09T07:35:53.689Z,72.00
2019-03-09T07:38:21.404Z,72.00
2019-03-09T07:40:49.113Z,71.70
2019-03-09T07:43:16.835Z,71.80
2019-03-09T07:45:44.581Z,70.80
2019-03-09T07:48:12.304Z,70.10
2019-03-09T07:50:40.185Z,69.60
2019-03-09T07:53:09.450Z,70.00
2019-03-09T07:55:37.184Z,70.00
2019-03-09T07:58:06.709Z,68.60
2019-03-09T08:00:34.550Z,68.30
2019-03-09T08:03:02.496Z,67.60
2019-03-09T08:05:30.137Z,67.80
2019-03-09T08:07:57.998Z,67.70
2019-03-09T08:10:26.029Z,67.60
2019-03-09T08:12:53.842Z,67.70
2019-03-09T08:15:21.572Z,66.60
2019-03-09T08:17:49.477Z,66.80
2019-03-09T08:20:17.193Z,65.80
2019-03-09T08:22:45.503Z,65.20
2019-03-09T08:25:13.890Z,63.90
2019-03-09T08:27:41.827Z,63.40
2019-03-09T08:30:12.185Z,63.20
2019-03-09T08:32:41.152Z,63.10
2019-03-09T08:35:09.437Z,63.30
2019-03-09T08:37:37.149Z,62.40
2019-03-09T08:40:05.117Z,62.60
2019-03-09T08:42:32.950Z,61.30
2019-03-09T08:45:01.550Z,61.70
2019-03-09T08:47:29.463Z,61.70
2019-03-09T08:49:57.179Z,61.80
2019-03-09T08:52:25.083Z,62.30
2019-03-09T08:54:52.898Z,61.30
2019-03-09T08:57:21.696Z,60.40
2019-03-09T08:59:49.641Z,61.40
2019-03-09T09:02:17.681Z,60.90
2019-03-09T09:04:45.485Z,60.10
2019-03-09T09:07:13.249Z,60.80
2019-03-09T09:09:42.233Z,61.40
2019-03-09T09:12:09.954Z,61.30
2019-03-09T09:14:37.643Z,60.40
2019-03-09T09:17:06.421Z,60.80
2019-03-09T09:19:35.085Z,60.30
2019-03-09T09:22:02.907Z,59.80
2019-03-09T09:24:30.681Z,60.40
2019-03-09T09:26:58.762Z,60.30
2019-03-09T09:29:26.449Z,58.90
2019-03-09T09:31:54.138Z,60.10
2019-03-09T09:34:21.822Z,59.30
2019-03-09T09:36:49.573Z,59.50
2019-03-09T09:39:17.376Z,59.20
2019-03-09T09:41:45.411Z,59.80
2019-03-09T09:44:14.107Z,59.30
2019-03-09T09:46:41.849Z,59.90
2019-03-09T09:49:09.561Z,59.60
2019-03-09T09:51:37.333Z,59.50
2019-03-09T09:54:05.056Z,60.00
2019-03-09T09:56:32.722Z,59.60
2019-03-09T09:59:00.700Z,60.10
2019-03-09T10:01:28.391Z,59.00
2019-03-09T10:03:56.123Z,59.00
2019-03-09T10:06:23.887Z,59.10
2019-03-09T10:08:51.679Z,59.60
2019-03-09T10:11:19.362Z,58.70
2019-03-09T10:13:47.096Z,57.80
2019-03-09T10:16:14.894Z,59.30
2019-03-09T10:18:42.550Z,58.60
2019-03-09T10:21:10.339Z,58.90
2019-03-09T10:23:38.214Z,59.20
2019-03-09T10:26:06.026Z,59.20
2019-03-09T10:28:33.709Z,58.10
2019-03-09T10:31:01.402Z,58.30
2019-03-09T10:33:29.206Z,57.70
2019-03-09T10:35:57.046Z,58.20
2019-03-09T10:38:24.985Z,58.10
2019-03-09T10:40:52.692Z,58.00
2019-03-09T10:43:20.517Z,58.10
2019-03-09T10:45:49.691Z,58.20
2019-03-09T10:48:17.451Z,58.20
2019-03-09T10:50:45.137Z,58.20
2019-03-09T10:53:12.834Z,58.20
2019-03-09T10:55:42.547Z,57.80
2019-03-09T10:58:10.359Z,58.20
2019-03-09T11:00:38.090Z,57.90
2019-03-09T11:03:05.868Z,58.20
2019-03-09T11:05:33.719Z,58.70
2019-03-09T11:08:01.423Z,59.90
2019-03-09T11:10:29.134Z,59.80
2019-03-09T11:12:57.054Z,60.30
2019-03-09T11:15:24.906Z,60.30
2019-03-09T11:17:52.657Z,60.00
2019-03-09T11:20:21.776Z,59.60
2019-03-09T11:22:49.781Z,60.40
2019-03-09T11:25:17.544Z,59.40
2019-03-09T11:27:47.022Z,59.60
2019-03-09T11:30:17.223Z,60.70
2019-03-09T11:32:45.026Z,60.60
2019-03-09T11:35:12.775Z,60.90
2019-03-09T11:37:40.493Z,60.10
2019-03-09T11:40:08.208Z,59.60
2019-03-09T11:42:36.134Z,60.20
2019-03-09T11:45:05.154Z,61.20
2019-03-09T11:47:32.899Z,61.50
2019-03-09T11:50:00.790Z,61.10
2019-03-09T11:52:29.338Z,61.10
2019-03-09T11:54:57.186Z,61.10
2019-03-09T11:57:24.902Z,62.00
2019-03-09T11:59:52.565Z,62.30
2019-03-09T12:02:20.417Z,62.00
2019-03-09T12:04:48.089Z,63.30
2019-03-09T12:07:15.861Z,62.40
2019-03-09T12:09:43.628Z,63.10
2019-03-09T12:12:11.330Z,63.50
2019-03-09T12:14:39.099Z,64.50
2019-03-09T12:17:12.492Z,66.10
2019-03-09T12:19:38.414Z,64.90
2019-03-09T12:22:06.190Z,64.80
2019-03-09T12:24:33.997Z,63.70
2019-03-09T12:27:01.689Z,63.70
2019-03-09T12:29:29.417Z,62.90
2019-03-09T12:31:57.078Z,63.20
2019-03-09T12:34:25.796Z,62.60
2019-03-09T12:36:53.501Z,62.00
2019-03-09T12:39:21.252Z,62.10
2019-03-09T12:41:48.968Z,61.30
2019-03-09T12:44:16.801Z,61.90
2019-03-09T12:46:44.528Z,62.10
2019-03-09T12:49:12.313Z,62.60
2019-03-09T12:51:40.144Z,62.60
2019-03-09T12:54:07.925Z,61.90
2019-03-09T12:56:35.873Z,61.90
2019-03-09T12:59:04.774Z,62.30
2019-03-09T13:01:32.545Z,62.60
2019-03-09T13:04:00.250Z,62.90
2019-03-09T13:06:28.704Z,62.80
2019-03-09T13:08:56.445Z,62.40
2019-03-09T13:11:24.184Z,62.50
2019-03-09T13:13:52.018Z,62.90
2019-03-09T13:16:20.799Z,63.10
2019-03-09T13:18:48.526Z,63.00
2019-03-09T13:21:16.365Z,62.30
2019-03-09T13:23:44.158Z,62.90
2019-03-09T13:26:11.834Z,63.10
2019-03-09T13:28:39.589Z,63.50
2019-03-09T13:31:07.297Z,63.80
2019-03-09T13:33:34.941Z,64.80
2019-03-09T13:36:02.614Z,64.70
2019-03-09T13:38:30.386Z,64.30
2019-03-09T13:40:58.117Z,64.70
2019-03-09T13:43:25.874Z,64.90
2019-03-09T13:45:53.570Z,65.00
2019-03-09T13:48:21.218Z,67.00
2019-03-09T13:50:48.940Z,66.90
2019-03-09T13:53:17.083Z,66.80
2019-03-09T13:55:44.763Z,68.80
2019-03-09T13:58:12.420Z,69.10
2019-03-09T14:00:40.988Z,70.20
2019-03-09T14:03:08.869Z,69.40
2019-03-09T14:05:36.578Z,69.40
2019-03-09T14:08:04.280Z,69.70
2019-03-09T14:10:32.064Z,68.30
2019-03-09T14:12:59.854Z,69.20
2019-03-09T14:15:28.562Z,68.60
2019-03-09T14:17:56.238Z,69.30
2019-03-09T14:20:24.017Z,67.90
2019-03-09T14:22:51.689Z,68.60
2019-03-09T14:25:19.393Z,68.40
2019-03-09T14:27:47.053Z,68.10
2019-03-09T14:30:14.905Z,68.00
2019-03-09T14:32:42.544Z,68.40
2019-03-09T14:35:10.338Z,69.10
2019-03-09T14:37:39.017Z,69.50
2019-03-09T14:40:07.448Z,68.30
2019-03-09T14:42:35.274Z,68.70
2019-03-09T14:45:03.528Z,68.90
2019-03-09T14:47:31.305Z,68.10
2019-03-09T14:49:59.029Z,68.10
2019-03-09T14:52:26.782Z,68.20
2019-03-09T14:54:54.591Z,68.10
2019-03-09T14:57:22.369Z,67.80
2019-03-09T14:59:51.109Z,66.40
2019-03-09T15:02:18.956Z,66.30
2019-03-09T15:04:46.615Z,64.70
2019-03-09T15:07:14.306Z,64.60
2019-03-09T15:09:41.994Z,64.60
2019-03-09T15:12:09.749Z,64.30
2019-03-09T15:14:37.595Z,64.20
2019-03-09T15:17:05.348Z,64.10
2019-03-09T15:19:33.028Z,64.30
2019-03-09T15:22:00.751Z,63.70
2019-03-09T15:24:29.429Z,63.80
2019-03-09T15:26:57.094Z,63.70
2019-03-09T15:29:24.744Z,64.00
2019-03-09T15:31:52.422Z,64.70
2019-03-09T15:34:20.127Z,63.70
2019-03-09T15:36:47.794Z,63.90
2019-03-09T15:39:15.378Z,63.90
2019-03-09T15:41:43.906Z,63.60
2019-03-09T15:44:11.625Z,63.90
2019-03-09T15:46:39.311Z,64.10
2019-03-09T15:49:07.649Z,63.70
2019-03-09T15:51:35.362Z,64.00
2019-03-09T15:54:03.039Z,62.90
2019-03-09T15:56:30.864Z,62.60
2019-03-09T15:58:58.578Z,62.90
2019-03-09T16:01:26.305Z,62.40
2019-03-09T16:03:54.021Z,62.50
2019-03-09T16:06:21.820Z,62.60
2019-03-09T16:08:49.537Z,62.30
2019-03-09T16:11:17.295Z,62.00
2019-03-09T16:13:45.325Z,61.30
2019-03-09T16:16:13.150Z,61.60
2019-03-09T16:18:40.893Z,61.60
2019-03-09T16:21:08.622Z,61.40
2019-03-09T16:23:36.409Z,61.40
2019-03-09T16:26:04.137Z,60.60
2019-03-09T16:28:31.813Z,61.40
2019-03-09T16:30:59.538Z,61.70
2019-03-09T16:33:27.286Z,61.20
2019-03-09T16:35:55.193Z,61.20
2019-03-09T16:38:22.945Z,61.20
2019-03-09T16:40:50.666Z,60.80
2019-03-09T16:43:18.496Z,60.80
2019-03-09T16:45:46.292Z,60.90
2019-03-09T16:48:14.022Z,60.70
2019-03-09T16:50:41.913Z,60.70
2019-03-09T16:53:09.669Z,60.10
2019-03-09T16:55:37.342Z,60.60
2019-03-09T16:58:05.071Z,60.50
2019-03-09T17:00:32.800Z,60.50
2019-03-09T17:03:00.732Z,60.60
2019-03-09T17:05:28.446Z,60.70
2019-03-09T17:07:56.256Z,60.70
2019-03-09T17:10:24.034Z,60.30
2019-03-09T17:12:53.849Z,60.50
2019-03-09T17:15:21.580Z,60.10
2019-03-09T17:18:00.742Z,60.50
2019-03-09T17:20:41.522Z,60.00
2019-03-09T17:23:11.275Z,60.00
2019-03-09T17:25:38.947Z,60.10
2019-03-09T17:28:29.267Z,60.30
2019-03-09T17:31:21.712Z,60.10
2019-03-09T17:41:38.988Z,60.20
2019-03-09T17:44:25.164Z,60.00
2019-03-09T17:47:11.031Z,60.30
2019-03-09T17:49:57.063Z,59.50
2019-03-09T17:52:43.192Z,59.80
2019-03-09T17:55:29.182Z,59.70
2019-03-09T17:58:15.236Z,60.00
2019-03-09T18:00:44.819Z,59.70
2019-03-09T18:03:13.627Z,59.50
2019-03-09T18:05:41.373Z,59.60
2019-03-09T18:08:09.023Z,59.50
2019-03-09T18:10:45.614Z,59.10
2019-03-09T18:13:13.322Z,59.40
2019-03-09T18:15:41.003Z,59.30
2019-03-09T18:18:09.329Z,59.30
2019-03-09T18:20:37.913Z,58.80
2019-03-09T18:23:05.600Z,58.80
2019-03-09T18:25:33.319Z,58.50
2019-03-09T18:28:01.296Z,58.30
2019-03-09T18:30:28.963Z,58.40
2019-03-09T18:32:56.614Z,57.90
2019-03-09T18:35:24.316Z,57.70
2019-03-09T18:37:51.940Z,58.00
2019-03-09T18:40:19.692Z,57.60
2019-03-09T18:42:47.365Z,58.40
2019-03-09T18:45:15.258Z,58.10
2019-03-09T18:47:42.930Z,58.40
2019-03-09T18:50:10.703Z,58.60
2019-03-09T18:52:38.568Z,58.90
2019-03-09T18:55:06.351Z,57.90
2019-03-09T18:57:34.066Z,58.10
2019-03-09T19:00:01.731Z,57.70
2019-03-09T19:02:29.594Z,57.30
2019-03-09T19:04:57.253Z,57.50
2019-03-09T19:07:24.930Z,57.90
2019-03-09T19:09:52.561Z,57.40
2019-03-09T19:12:20.331Z,57.50
2019-03-09T19:14:48.062Z,57.50
2019-03-09T19:17:15.747Z,57.10
2019-03-09T19:19:43.465Z,57.30
2019-03-09T19:22:11.157Z,57.00
2019-03-09T19:24:38.849Z,56.60
2019-03-09T19:27:06.641Z,56.70
2019-03-09T19:29:34.341Z,56.60
2019-03-09T19:32:01.994Z,56.60
2019-03-09T19:34:30.793Z,56.60
2019-03-09T19:36:59.449Z,56.60
2019-03-09T19:39:27.256Z,57.10
2019-03-09T19:41:54.998Z,57.00
2019-03-09T19:44:22.728Z,56.20
2019-03-09T19:46:50.418Z,56.30
2019-03-09T19:49:18.069Z,56.10
2019-03-09T19:51:45.855Z,55.70
2019-03-09T19:54:13.590Z,56.00
2019-03-09T19:56:41.513Z,55.50
2019-03-09T19:59:09.186Z,55.40
2019-03-09T20:01:36.854Z,55.80
2019-03-09T20:04:04.569Z,55.80
2019-03-09T20:06:32.260Z,55.50
2019-03-09T20:09:04.950Z,55.70
2019-03-09T20:11:33.621Z,55.30
2019-03-09T20:14:01.351Z,55.70
2019-03-09T20:16:28.996Z,55.70
2019-03-09T20:18:56.621Z,55.10
2019-03-09T20:21:24.274Z,55.30
2019-03-09T20:23:51.949Z,55.40
2019-03-09T20:26:19.629Z,55.50
2019-03-09T20:28:47.357Z,56.00
2019-03-09T20:31:15.014Z,56.10
2019-03-09T20:33:42.747Z,56.10
2019-03-09T20:36:10.429Z,55.80
2019-03-09T20:38:38.302Z,55.60
2019-03-09T20:41:06.007Z,55.90
2019-03-09T20:43:33.704Z,56.50
2019-03-09T20:46:01.444Z,56.40
2019-03-09T20:48:30.283Z,56.20
2019-03-09T20:50:57.979Z,55.80
2019-03-09T20:53:25.834Z,55.50
2019-03-09T20:55:53.536Z,55.40
2019-03-09T20:58:21.225Z,55.40
2019-03-09T21:00:48.950Z,55.40
2019-03-09T21:03:16.604Z,55.30
2019-03-09T21:05:44.288Z,54.80
2019-03-09T21:08:11.943Z,55.20
2019-03-09T21:10:39.633Z,55.30
2019-03-09T21:13:07.430Z,54.80
2019-03-09T21:15:35.249Z,55.20
2019-03-09T21:18:03.322Z,55.60
2019-03-09T21:20:31.069Z,55.50
2019-03-09T21:22:58.826Z,55.60
2019-03-09T21:25:26.614Z,54.90
2019-03-09T21:27:54.343Z,54.70
2019-03-09T21:30:22.087Z,54.80
2019-03-09T21:32:49.811Z,53.90
2019-03-09T21:35:17.617Z,54.70
2019-03-09T21:37:45.422Z,54.70
2019-03-09T21:40:13.227Z,54.50
2019-03-09T21:42:41.011Z,54.80
2019-03-09T21:45:08.809Z,54.40
2019-03-09T21:47:36.508Z,53.90
2019-03-09T21:50:04.769Z,54.30
2019-03-09T21:52:32.759Z,54.40
2019-03-09T21:55:01.446Z,54.50
2019-03-09T21:57:29.127Z,54.30
2019-03-09T21:59:56.824Z,54.40
2019-03-09T22:02:24.529Z,54.40
2019-03-09T22:04:52.199Z,54.40
2019-03-09T22:07:19.986Z,53.80
2019-03-09T22:09:47.798Z,54.20
2019-03-09T22:12:15.650Z,54.30
2019-03-09T22:14:43.340Z,55.00
2019-03-09T22:17:11.001Z,54.40
2019-03-09T22:19:38.704Z,54.50
2019-03-09T22:22:06.388Z,54.40
2019-03-09T22:24:34.074Z,54.60
2019-03-09T22:27:01.796Z,54.30
2019-03-09T22:29:29.511Z,53.80
2019-03-09T22:31:57.242Z,54.30
2019-03-09T22:34:25.019Z,54.30
2019-03-09T22:36:52.718Z,54.70
2019-03-09T22:39:20.659Z,54.30
2019-03-09T22:41:48.369Z,54.70
2019-03-09T22:44:18.483Z,55.00
2019-03-09T22:46:45.701Z,54.80
2019-03-09T22:49:14.238Z,54.90
2019-03-09T22:51:41.906Z,54.50
2019-03-09T22:54:09.617Z,55.10
2019-03-09T22:56:37.238Z,54.10
2019-03-09T22:59:04.945Z,54.10
2019-03-09T23:01:32.697Z,54.10
2019-03-09T23:04:00.751Z,54.10
2019-03-09T23:06:28.436Z,55.00
2019-03-09T23:08:56.117Z,55.50
2019-03-09T23:11:23.805Z,55.90
2019-03-09T23:13:51.513Z,56.50
2019-03-09T23:16:19.220Z,56.40
2019-03-09T23:18:46.861Z,56.00
2019-03-09T23:21:14.697Z,56.40
2019-03-09T23:23:42.385Z,56.60
2019-03-09T23:26:10.197Z,56.80
2019-03-09T23:28:46.598Z,56.70
2019-03-09T23:31:14.461Z,57.00
2019-03-09T23:33:45.224Z,57.20
2019-03-09T23:36:12.903Z,56.80
2019-03-09T23:38:40.716Z,57.00
2019-03-09T23:41:08.421Z,56.40
2019-03-09T23:43:36.070Z,56.70
2019-03-09T23:46:04.790Z,56.10
2019-03-09T23:48:32.536Z,55.90
2019-03-09T23:51:00.177Z,56.40
2019-03-09T23:53:28.010Z,56.40
2019-03-09T23:55:55.673Z,56.50
2019-03-09T23:58:23.377Z,57.00
